sensor_id;sensor_type;location;lat;lon;timestamp;P1;durP1;ratioP1;P2;durP2;ratioP2
70576;SDS011;58138;43.138;24.702;2023-01-15T00:02:03;168.43;;;79.18;;
70576;SDS011;58138;43.138;24.702;2023-01-15T00:04:29;155.77;;;74.45;;
70576;SDS011;58138;43.138;24.702;2023-01-15T00:06:55;181.43;;;83.68;;
70576;SDS011;58138;43.138;24.702;2023-01-15T00:09:20;190.68;;;86.70;;
70576;SDS011;58138;43.138;24.702;2023-01-15T00:11:46;144.00;;;78.82;;
70576;SDS011;58138;43.138;24.702;2023-01-15T00:14:11;162.05;;;95.88;;
70576;SDS011;58138;43.138;24.702;2023-01-15T00:16:37;158.85;;;85.43;;
70576;SDS011;58138;43.138;24.702;2023-01-15T00:19:04;141.48;;;74.00;;
70576;SDS011;58138;43.138;24.702;2023-01-15T00:21:33;149.50;;;77.15;;
70576;SDS011;58138;43.138;24.702;2023-01-15T00:23:58;128.68;;;65.40;;
70576;SDS011;58138;43.138;24.702;2023-01-15T00:26:42;131.43;;;68.15;;
70576;SDS011;58138;43.138;24.702;2023-01-15T00:29:27;118.22;;;65.82;;
70576;SDS011;58138;43.138;24.702;2023-01-15T00:32:02;133.32;;;74.05;;
70576;SDS011;58138;43.138;24.702;2023-01-15T00:34:30;104.53;;;59.22;;
70576;SDS011;58138;43.138;24.702;2023-01-15T00:36:56;83.88;;;46.47;;
70576;SDS011;58138;43.138;24.702;2023-01-15T00:39:21;71.78;;;41.55;;
70576;SDS011;58138;43.138;24.702;2023-01-15T00:41:48;47.90;;;29.35;;
70576;SDS011;58138;43.138;24.702;2023-01-15T00:44:13;41.45;;;24.10;;
70576;SDS011;58138;43.138;24.702;2023-01-15T00:46:39;42.58;;;25.10;;
70576;SDS011;58138;43.138;24.702;2023-01-15T00:49:06;37.30;;;24.52;;
70576;SDS011;58138;43.138;24.702;2023-01-15T00:51:32;43.25;;;26.25;;
70576;SDS011;58138;43.138;24.702;2023-01-15T00:53:58;46.17;;;27.00;;
70576;SDS011;58138;43.138;24.702;2023-01-15T00:56:23;44.85;;;27.88;;
70576;SDS011;58138;43.138;24.702;2023-01-15T00:58:49;51.30;;;30.85;;
70576;SDS011;58138;43.138;24.702;2023-01-15T01:01:14;49.92;;;31.13;;
70576;SDS011;58138;43.138;24.702;2023-01-15T01:03:40;46.15;;;27.23;;
70576;SDS011;58138;43.138;24.702;2023-01-15T01:06:05;46.70;;;28.63;;
70576;SDS011;58138;43.138;24.702;2023-01-15T01:08:31;48.03;;;29.27;;
70576;SDS011;58138;43.138;24.702;2023-01-15T01:11:01;49.15;;;29.27;;
70576;SDS011;58138;43.138;24.702;2023-01-15T01:13:29;46.85;;;27.83;;
70576;SDS011;58138;43.138;24.702;2023-01-15T01:15:55;49.08;;;29.27;;
70576;SDS011;58138;43.138;24.702;2023-01-15T01:18:20;111.18;;;64.53;;
70576;SDS011;58138;43.138;24.702;2023-01-15T01:20:46;106.65;;;62.80;;
70576;SDS011;58138;43.138;24.702;2023-01-15T01:23:11;104.15;;;60.33;;
70576;SDS011;58138;43.138;24.702;2023-01-15T01:25:37;126.50;;;74.53;;
70576;SDS011;58138;43.138;24.702;2023-01-15T01:28:02;131.30;;;77.70;;
70576;SDS011;58138;43.138;24.702;2023-01-15T01:30:28;143.77;;;83.43;;
70576;SDS011;58138;43.138;24.702;2023-01-15T01:32:53;146.68;;;82.90;;
70576;SDS011;58138;43.138;24.702;2023-01-15T01:35:19;142.63;;;80.65;;
70576;SDS011;58138;43.138;24.702;2023-01-15T01:37:48;133.27;;;79.32;;
70576;SDS011;58138;43.138;24.702;2023-01-15T01:40:14;135.23;;;80.28;;
70576;SDS011;58138;43.138;24.702;2023-01-15T01:42:40;124.13;;;73.65;;
70576;SDS011;58138;43.138;24.702;2023-01-15T01:45:08;111.68;;;62.97;;
70576;SDS011;58138;43.138;24.702;2023-01-15T01:47:43;102.53;;;62.63;;
70576;SDS011;58138;43.138;24.702;2023-01-15T01:50:10;98.90;;;58.13;;
70576;SDS011;58138;43.138;24.702;2023-01-15T01:52:43;92.53;;;55.75;;
70576;SDS011;58138;43.138;24.702;2023-01-15T01:55:11;91.40;;;51.35;;
70576;SDS011;58138;43.138;24.702;2023-01-15T01:57:39;80.53;;;49.03;;
70576;SDS011;58138;43.138;24.702;2023-01-15T02:00:05;67.88;;;41.80;;
70576;SDS011;58138;43.138;24.702;2023-01-15T02:02:31;88.60;;;54.40;;
70576;SDS011;58138;43.138;24.702;2023-01-15T02:04:57;55.13;;;31.10;;
70576;SDS011;58138;43.138;24.702;2023-01-15T02:07:23;60.20;;;38.10;;
70576;SDS011;58138;43.138;24.702;2023-01-15T02:09:48;66.32;;;40.63;;
70576;SDS011;58138;43.138;24.702;2023-01-15T02:23:35;69.10;;;41.95;;
70576;SDS011;58138;43.138;24.702;2023-01-15T02:29:23;92.95;;;55.05;;
70576;SDS011;58138;43.138;24.702;2023-01-15T02:31:53;108.13;;;64.90;;
70576;SDS011;58138;43.138;24.702;2023-01-15T02:34:26;79.15;;;48.63;;
70576;SDS011;58138;43.138;24.702;2023-01-15T02:36:57;87.65;;;54.40;;
70576;SDS011;58138;43.138;24.702;2023-01-15T02:39:35;75.50;;;47.17;;
70576;SDS011;58138;43.138;24.702;2023-01-15T02:42:03;69.05;;;44.53;;
70576;SDS011;58138;43.138;24.702;2023-01-15T02:44:32;63.78;;;42.42;;
70576;SDS011;58138;43.138;24.702;2023-01-15T02:46:59;56.55;;;37.95;;
70576;SDS011;58138;43.138;24.702;2023-01-15T02:49:25;61.92;;;39.88;;
70576;SDS011;58138;43.138;24.702;2023-01-15T02:51:52;59.88;;;39.45;;
70576;SDS011;58138;43.138;24.702;2023-01-15T02:54:26;67.88;;;43.45;;
70576;SDS011;58138;43.138;24.702;2023-01-15T02:56:55;68.30;;;44.00;;
70576;SDS011;58138;43.138;24.702;2023-01-15T02:59:26;69.45;;;44.63;;
70576;SDS011;58138;43.138;24.702;2023-01-15T03:02:04;75.20;;;48.63;;
70576;SDS011;58138;43.138;24.702;2023-01-15T03:04:36;75.10;;;44.33;;
70576;SDS011;58138;43.138;24.702;2023-01-15T03:07:06;81.32;;;49.45;;
70576;SDS011;58138;43.138;24.702;2023-01-15T03:09:42;83.22;;;47.78;;
70576;SDS011;58138;43.138;24.702;2023-01-15T03:14:41;75.10;;;45.47;;
70576;SDS011;58138;43.138;24.702;2023-01-15T03:17:47;72.30;;;43.53;;
70576;SDS011;58138;43.138;24.702;2023-01-15T03:20:11;64.00;;;39.45;;
70576;SDS011;58138;43.138;24.702;2023-01-15T03:22:45;68.78;;;40.50;;
70576;SDS011;58138;43.138;24.702;2023-01-15T03:25:18;64.43;;;39.50;;
70576;SDS011;58138;43.138;24.702;2023-01-15T03:27:47;63.78;;;39.75;;
70576;SDS011;58138;43.138;24.702;2023-01-15T03:30:15;65.47;;;40.03;;
70576;SDS011;58138;43.138;24.702;2023-01-15T03:32:42;66.50;;;39.95;;
70576;SDS011;58138;43.138;24.702;2023-01-15T03:35:38;53.38;;;33.97;;
70576;SDS011;58138;43.138;24.702;2023-01-15T03:38:11;59.47;;;35.30;;
70576;SDS011;58138;43.138;24.702;2023-01-15T03:40:38;56.92;;;35.38;;
70576;SDS011;58138;43.138;24.702;2023-01-15T03:43:13;50.20;;;32.30;;
70576;SDS011;58138;43.138;24.702;2023-01-15T03:45:58;50.22;;;31.77;;
70576;SDS011;58138;43.138;24.702;2023-01-15T03:49:32;56.35;;;33.72;;
70576;SDS011;58138;43.138;24.702;2023-01-15T03:51:32;54.83;;;33.72;;
70576;SDS011;58138;43.138;24.702;2023-01-15T03:54:06;52.55;;;33.03;;
70576;SDS011;58138;43.138;24.702;2023-01-15T03:56:38;53.75;;;34.33;;
70576;SDS011;58138;43.138;24.702;2023-01-15T03:59:13;59.92;;;38.40;;
70576;SDS011;58138;43.138;24.702;2023-01-15T04:01:41;69.05;;;41.63;;
70576;SDS011;58138;43.138;24.702;2023-01-15T04:04:08;60.60;;;37.90;;
70576;SDS011;58138;43.138;24.702;2023-01-15T04:06:35;56.22;;;35.72;;
70576;SDS011;58138;43.138;24.702;2023-01-15T04:09:03;64.13;;;39.72;;
70576;SDS011;58138;43.138;24.702;2023-01-15T04:11:32;61.92;;;39.30;;
70576;SDS011;58138;43.138;24.702;2023-01-15T04:13:58;56.03;;;36.83;;
70576;SDS011;58138;43.138;24.702;2023-01-15T04:16:24;60.65;;;37.03;;
70576;SDS011;58138;43.138;24.702;2023-01-15T04:18:51;63.35;;;39.05;;
70576;SDS011;58138;43.138;24.702;2023-01-15T04:21:17;58.78;;;36.78;;
70576;SDS011;58138;43.138;24.702;2023-01-15T04:23:43;58.55;;;36.58;;
70576;SDS011;58138;43.138;24.702;2023-01-15T04:26:08;48.97;;;30.83;;
70576;SDS011;58138;43.138;24.702;2023-01-15T04:28:34;53.53;;;33.22;;
70576;SDS011;58138;43.138;24.702;2023-01-15T04:30:59;54.05;;;36.35;;
70576;SDS011;58138;43.138;24.702;2023-01-15T04:33:25;51.70;;;31.65;;
70576;SDS011;58138;43.138;24.702;2023-01-15T04:35:50;52.00;;;33.28;;
70576;SDS011;58138;43.138;24.702;2023-01-15T04:38:16;59.50;;;36.78;;
70576;SDS011;58138;43.138;24.702;2023-01-15T04:40:44;58.50;;;36.03;;
70576;SDS011;58138;43.138;24.702;2023-01-15T04:43:29;48.38;;;31.23;;
70576;SDS011;58138;43.138;24.702;2023-01-15T04:46:13;54.92;;;34.03;;
70576;SDS011;58138;43.138;24.702;2023-01-15T04:48:38;47.63;;;31.77;;
70576;SDS011;58138;43.138;24.702;2023-01-15T04:51:04;38.70;;;24.05;;
70576;SDS011;58138;43.138;24.702;2023-01-15T04:53:31;41.53;;;26.35;;
70576;SDS011;58138;43.138;24.702;2023-01-15T04:56:00;37.03;;;22.25;;
70576;SDS011;58138;43.138;24.702;2023-01-15T04:58:26;33.05;;;18.88;;
70576;SDS011;58138;43.138;24.702;2023-01-15T05:00:52;34.53;;;21.15;;
70576;SDS011;58138;43.138;24.702;2023-01-15T05:03:17;37.60;;;24.08;;
70576;SDS011;58138;43.138;24.702;2023-01-15T05:05:43;42.05;;;27.48;;
70576;SDS011;58138;43.138;24.702;2023-01-15T05:08:08;38.65;;;25.08;;
70576;SDS011;58138;43.138;24.702;2023-01-15T05:10:34;34.50;;;20.75;;
70576;SDS011;58138;43.138;24.702;2023-01-15T05:12:59;35.50;;;22.42;;
70576;SDS011;58138;43.138;24.702;2023-01-15T05:15:25;37.85;;;22.70;;
70576;SDS011;58138;43.138;24.702;2023-01-15T05:17:50;29.35;;;18.55;;
70576;SDS011;58138;43.138;24.702;2023-01-15T05:20:16;33.97;;;19.67;;
70576;SDS011;58138;43.138;24.702;2023-01-15T05:22:41;30.23;;;17.33;;
70576;SDS011;58138;43.138;24.702;2023-01-15T05:25:07;27.20;;;15.07;;
70576;SDS011;58138;43.138;24.702;2023-01-15T05:27:33;38.90;;;22.38;;
70576;SDS011;58138;43.138;24.702;2023-01-15T05:29:58;35.97;;;23.00;;
70576;SDS011;58138;43.138;24.702;2023-01-15T05:32:24;32.63;;;20.23;;
70576;SDS011;58138;43.138;24.702;2023-01-15T05:34:49;34.30;;;20.38;;
70576;SDS011;58138;43.138;24.702;2023-01-15T05:37:14;27.13;;;19.27;;
70576;SDS011;58138;43.138;24.702;2023-01-15T05:39:40;29.77;;;19.00;;
70576;SDS011;58138;43.138;24.702;2023-01-15T05:42:05;28.55;;;18.88;;
70576;SDS011;58138;43.138;24.702;2023-01-15T05:44:32;35.05;;;20.27;;
70576;SDS011;58138;43.138;24.702;2023-01-15T05:46:58;28.00;;;17.10;;
70576;SDS011;58138;43.138;24.702;2023-01-15T05:51:55;28.33;;;18.90;;
70576;SDS011;58138;43.138;24.702;2023-01-15T05:54:22;33.45;;;19.75;;
70576;SDS011;58138;43.138;24.702;2023-01-15T05:56:49;28.52;;;19.23;;
70576;SDS011;58138;43.138;24.702;2023-01-15T05:59:15;33.45;;;19.67;;
70576;SDS011;58138;43.138;24.702;2023-01-15T06:01:42;35.25;;;21.98;;
70576;SDS011;58138;43.138;24.702;2023-01-15T06:04:08;40.83;;;26.67;;
70576;SDS011;58138;43.138;24.702;2023-01-15T06:06:35;47.72;;;29.13;;
70576;SDS011;58138;43.138;24.702;2023-01-15T06:09:01;77.32;;;42.50;;
70576;SDS011;58138;43.138;24.702;2023-01-15T06:11:28;71.00;;;41.97;;
70576;SDS011;58138;43.138;24.702;2023-01-15T06:13:53;55.85;;;33.40;;
70576;SDS011;58138;43.138;24.702;2023-01-15T06:16:19;57.78;;;35.92;;
70576;SDS011;58138;43.138;24.702;2023-01-15T06:18:44;26.05;;;16.83;;
70576;SDS011;58138;43.138;24.702;2023-01-15T06:21:10;43.08;;;28.77;;
70576;SDS011;58138;43.138;24.702;2023-01-15T06:23:37;47.00;;;30.17;;
70576;SDS011;58138;43.138;24.702;2023-01-15T06:26:04;45.97;;;29.42;;
70576;SDS011;58138;43.138;24.702;2023-01-15T06:28:30;46.97;;;31.63;;
70576;SDS011;58138;43.138;24.702;2023-01-15T06:30:56;52.65;;;33.70;;
70576;SDS011;58138;43.138;24.702;2023-01-15T06:33:22;49.33;;;33.25;;
70576;SDS011;58138;43.138;24.702;2023-01-15T06:35:48;51.95;;;36.05;;
70576;SDS011;58138;43.138;24.702;2023-01-15T06:38:13;66.85;;;42.22;;
70576;SDS011;58138;43.138;24.702;2023-01-15T06:40:38;88.65;;;55.17;;
70576;SDS011;58138;43.138;24.702;2023-01-15T06:43:04;89.25;;;54.17;;
70576;SDS011;58138;43.138;24.702;2023-01-15T06:45:48;67.80;;;43.25;;
70576;SDS011;58138;43.138;24.702;2023-01-15T06:48:32;67.35;;;42.20;;
70576;SDS011;58138;43.138;24.702;2023-01-15T06:50:57;53.92;;;36.40;;
70576;SDS011;58138;43.138;24.702;2023-01-15T06:53:23;74.10;;;51.03;;
70576;SDS011;58138;43.138;24.702;2023-01-15T06:55:49;72.63;;;47.10;;
70576;SDS011;58138;43.138;24.702;2023-01-15T06:58:14;62.50;;;41.72;;
70576;SDS011;58138;43.138;24.702;2023-01-15T07:00:40;59.00;;;38.55;;
70576;SDS011;58138;43.138;24.702;2023-01-15T07:03:10;61.15;;;39.97;;
70576;SDS011;58138;43.138;24.702;2023-01-15T07:05:38;58.10;;;38.15;;
70576;SDS011;58138;43.138;24.702;2023-01-15T07:08:04;118.78;;;72.18;;
70576;SDS011;58138;43.138;24.702;2023-01-15T07:10:29;100.50;;;62.38;;
70576;SDS011;58138;43.138;24.702;2023-01-15T07:12:55;98.60;;;66.00;;
70576;SDS011;58138;43.138;24.702;2023-01-15T07:15:20;89.82;;;57.35;;
70576;SDS011;58138;43.138;24.702;2023-01-15T07:17:46;90.88;;;58.85;;
70576;SDS011;58138;43.138;24.702;2023-01-15T07:20:11;77.38;;;51.38;;
70576;SDS011;58138;43.138;24.702;2023-01-15T07:22:37;65.05;;;42.10;;
70576;SDS011;58138;43.138;24.702;2023-01-15T07:25:03;69.25;;;44.72;;
70576;SDS011;58138;43.138;24.702;2023-01-15T07:27:29;83.57;;;48.58;;
70576;SDS011;58138;43.138;24.702;2023-01-15T07:29:54;82.55;;;46.78;;
70576;SDS011;58138;43.138;24.702;2023-01-15T07:32:20;76.13;;;44.10;;
70576;SDS011;58138;43.138;24.702;2023-01-15T07:34:45;77.45;;;46.92;;
70576;SDS011;58138;43.138;24.702;2023-01-15T07:37:10;71.65;;;46.17;;
70576;SDS011;58138;43.138;24.702;2023-01-15T07:39:37;58.53;;;39.35;;
70576;SDS011;58138;43.138;24.702;2023-01-15T07:42:03;68.50;;;43.05;;
70576;SDS011;58138;43.138;24.702;2023-01-15T07:44:47;91.43;;;54.55;;
70576;SDS011;58138;43.138;24.702;2023-01-15T07:47:31;87.75;;;52.90;;
70576;SDS011;58138;43.138;24.702;2023-01-15T07:50:19;78.50;;;49.53;;
70576;SDS011;58138;43.138;24.702;2023-01-15T07:52:46;75.53;;;46.87;;
70576;SDS011;58138;43.138;24.702;2023-01-15T07:55:12;84.45;;;50.80;;
70576;SDS011;58138;43.138;24.702;2023-01-15T07:57:38;70.30;;;46.38;;
70576;SDS011;58138;43.138;24.702;2023-01-15T08:00:04;64.82;;;40.58;;
70576;SDS011;58138;43.138;24.702;2023-01-15T08:02:36;55.22;;;36.45;;
70576;SDS011;58138;43.138;24.702;2023-01-15T08:05:01;55.00;;;36.20;;
70576;SDS011;58138;43.138;24.702;2023-01-15T08:07:27;59.55;;;39.45;;
70576;SDS011;58138;43.138;24.702;2023-01-15T08:09:53;58.00;;;38.05;;
70576;SDS011;58138;43.138;24.702;2023-01-15T08:12:18;57.90;;;37.00;;
70576;SDS011;58138;43.138;24.702;2023-01-15T08:15:02;52.63;;;33.42;;
70576;SDS011;58138;43.138;24.702;2023-01-15T08:17:41;41.72;;;28.45;;
70576;SDS011;58138;43.138;24.702;2023-01-15T08:20:11;37.97;;;24.98;;
70576;SDS011;58138;43.138;24.702;2023-01-15T08:22:45;34.03;;;22.80;;
70576;SDS011;58138;43.138;24.702;2023-01-15T08:25:13;32.60;;;22.35;;
70576;SDS011;58138;43.138;24.702;2023-01-15T08:27:39;34.08;;;21.77;;
70576;SDS011;58138;43.138;24.702;2023-01-15T08:30:06;23.73;;;18.33;;
70576;SDS011;58138;43.138;24.702;2023-01-15T08:32:33;53.10;;;35.83;;
70576;SDS011;58138;43.138;24.702;2023-01-15T08:34:59;26.80;;;18.88;;
70576;SDS011;58138;43.138;24.702;2023-01-15T08:37:24;47.28;;;33.05;;
70576;SDS011;58138;43.138;24.702;2023-01-15T08:39:50;37.55;;;26.98;;
70576;SDS011;58138;43.138;24.702;2023-01-15T08:42:17;34.50;;;25.17;;
70576;SDS011;58138;43.138;24.702;2023-01-15T08:44:47;33.08;;;25.08;;
70576;SDS011;58138;43.138;24.702;2023-01-15T08:47:13;35.65;;;25.45;;
70576;SDS011;58138;43.138;24.702;2023-01-15T08:49:40;37.92;;;26.58;;
70576;SDS011;58138;43.138;24.702;2023-01-15T08:52:05;40.22;;;28.40;;
70576;SDS011;58138;43.138;24.702;2023-01-15T08:54:30;38.47;;;28.60;;
70576;SDS011;58138;43.138;24.702;2023-01-15T08:56:57;39.13;;;29.50;;
70576;SDS011;58138;43.138;24.702;2023-01-15T08:59:23;27.05;;;19.33;;
70576;SDS011;58138;43.138;24.702;2023-01-15T09:01:49;26.60;;;20.38;;
70576;SDS011;58138;43.138;24.702;2023-01-15T09:04:20;29.90;;;22.08;;
70576;SDS011;58138;43.138;24.702;2023-01-15T09:06:50;27.65;;;20.88;;
70576;SDS011;58138;43.138;24.702;2023-01-15T09:09:15;25.60;;;19.55;;
70576;SDS011;58138;43.138;24.702;2023-01-15T09:11:42;27.05;;;20.38;;
70576;SDS011;58138;43.138;24.702;2023-01-15T09:14:09;25.50;;;20.08;;
70576;SDS011;58138;43.138;24.702;2023-01-15T09:16:37;21.65;;;16.23;;
70576;SDS011;58138;43.138;24.702;2023-01-15T09:19:03;23.42;;;17.95;;
70576;SDS011;58138;43.138;24.702;2023-01-15T09:21:29;20.88;;;16.33;;
70576;SDS011;58138;43.138;24.702;2023-01-15T09:23:55;18.75;;;14.38;;
70576;SDS011;58138;43.138;24.702;2023-01-15T09:26:33;19.55;;;14.88;;
70576;SDS011;58138;43.138;24.702;2023-01-15T09:29:01;18.98;;;14.93;;
70576;SDS011;58138;43.138;24.702;2023-01-15T09:31:26;21.02;;;16.27;;
70576;SDS011;58138;43.138;24.702;2023-01-15T09:33:52;20.90;;;15.10;;
70576;SDS011;58138;43.138;24.702;2023-01-15T09:36:28;19.88;;;15.95;;
70576;SDS011;58138;43.138;24.702;2023-01-15T09:38:57;23.42;;;17.33;;
70576;SDS011;58138;43.138;24.702;2023-01-15T09:41:24;23.90;;;17.85;;
70576;SDS011;58138;43.138;24.702;2023-01-15T09:44:35;22.17;;;16.50;;
70576;SDS011;58138;43.138;24.702;2023-01-15T09:47:15;26.55;;;19.63;;
70576;SDS011;58138;43.138;24.702;2023-01-15T09:57:49;18.17;;;14.68;;
70576;SDS011;58138;43.138;24.702;2023-01-15T10:00:21;22.67;;;15.85;;
70576;SDS011;58138;43.138;24.702;2023-01-15T10:05:17;19.25;;;15.57;;
70576;SDS011;58138;43.138;24.702;2023-01-15T10:10:23;26.35;;;19.77;;
70576;SDS011;58138;43.138;24.702;2023-01-15T10:12:55;24.95;;;18.60;;
70576;SDS011;58138;43.138;24.702;2023-01-15T10:18:01;24.92;;;18.08;;
70576;SDS011;58138;43.138;24.702;2023-01-15T10:25:24;23.65;;;16.58;;
70576;SDS011;58138;43.138;24.702;2023-01-15T10:27:51;38.63;;;27.60;;
70576;SDS011;58138;43.138;24.702;2023-01-15T10:30:21;40.60;;;27.95;;
70576;SDS011;58138;43.138;24.702;2023-01-15T10:32:55;24.15;;;17.55;;
70576;SDS011;58138;43.138;24.702;2023-01-15T10:38:11;24.23;;;15.35;;
70576;SDS011;58138;43.138;24.702;2023-01-15T10:46:23;27.00;;;18.73;;
70576;SDS011;58138;43.138;24.702;2023-01-15T10:49:16;22.77;;;16.20;;
70576;SDS011;58138;43.138;24.702;2023-01-15T10:56:54;23.77;;;17.00;;
70576;SDS011;58138;43.138;24.702;2023-01-15T11:01:57;18.33;;;15.23;;
70576;SDS011;58138;43.138;24.702;2023-01-15T11:04:24;21.77;;;15.30;;
70576;SDS011;58138;43.138;24.702;2023-01-15T11:06:51;18.60;;;14.07;;
70576;SDS011;58138;43.138;24.702;2023-01-15T11:09:18;14.95;;;11.57;;
70576;SDS011;58138;43.138;24.702;2023-01-15T11:11:47;14.32;;;11.48;;
70576;SDS011;58138;43.138;24.702;2023-01-15T11:14:39;19.10;;;13.70;;
70576;SDS011;58138;43.138;24.702;2023-01-15T11:17:29;20.27;;;16.45;;
70576;SDS011;58138;43.138;24.702;2023-01-15T11:22:55;22.92;;;17.88;;
70576;SDS011;58138;43.138;24.702;2023-01-15T11:25:28;18.77;;;14.15;;
70576;SDS011;58138;43.138;24.702;2023-01-15T11:27:56;18.02;;;15.15;;
70576;SDS011;58138;43.138;24.702;2023-01-15T11:30:23;15.63;;;12.05;;
70576;SDS011;58138;43.138;24.702;2023-01-15T11:32:57;15.35;;;11.32;;
70576;SDS011;58138;43.138;24.702;2023-01-15T11:35:24;22.58;;;15.68;;
70576;SDS011;58138;43.138;24.702;2023-01-15T11:38:00;34.45;;;19.63;;
70576;SDS011;58138;43.138;24.702;2023-01-15T11:40:54;21.45;;;14.25;;
70576;SDS011;58138;43.138;24.702;2023-01-15T11:43:22;26.05;;;15.00;;
70576;SDS011;58138;43.138;24.702;2023-01-15T11:49:07;22.63;;;13.43;;
70576;SDS011;58138;43.138;24.702;2023-01-15T11:51:51;18.98;;;12.18;;
70576;SDS011;58138;43.138;24.702;2023-01-15T11:54:17;13.43;;;9.68;;
70576;SDS011;58138;43.138;24.702;2023-01-15T11:56:43;17.30;;;13.07;;
70576;SDS011;58138;43.138;24.702;2023-01-15T11:59:13;17.38;;;13.40;;
70576;SDS011;58138;43.138;24.702;2023-01-15T12:01:52;16.42;;;13.68;;
70576;SDS011;58138;43.138;24.702;2023-01-15T12:04:37;15.77;;;12.15;;
70576;SDS011;58138;43.138;24.702;2023-01-15T12:07:10;12.20;;;10.82;;
70576;SDS011;58138;43.138;24.702;2023-01-15T12:15:09;14.98;;;12.32;;
70576;SDS011;58138;43.138;24.702;2023-01-15T12:31:37;11.80;;;9.88;;
70576;SDS011;58138;43.138;24.702;2023-01-15T12:34:16;11.52;;;8.88;;
70576;SDS011;58138;43.138;24.702;2023-01-15T12:36:51;11.02;;;8.27;;
70576;SDS011;58138;43.138;24.702;2023-01-15T12:39:26;11.02;;;7.63;;
70576;SDS011;58138;43.138;24.702;2023-01-15T12:44:52;14.43;;;9.52;;
70576;SDS011;58138;43.138;24.702;2023-01-15T12:47:34;11.55;;;9.93;;
70576;SDS011;58138;43.138;24.702;2023-01-15T12:50:10;12.10;;;9.43;;
70576;SDS011;58138;43.138;24.702;2023-01-15T12:53:05;12.10;;;9.57;;
70576;SDS011;58138;43.138;24.702;2023-01-15T13:06:32;13.95;;;10.32;;
70576;SDS011;58138;43.138;24.702;2023-01-15T13:11:48;14.48;;;10.45;;
70576;SDS011;58138;43.138;24.702;2023-01-15T13:14:14;13.00;;;9.98;;
70576;SDS011;58138;43.138;24.702;2023-01-15T13:16:47;13.40;;;9.43;;
70576;SDS011;58138;43.138;24.702;2023-01-15T13:21:55;18.00;;;10.95;;
70576;SDS011;58138;43.138;24.702;2023-01-15T13:33:38;14.32;;;10.38;;
70576;SDS011;58138;43.138;24.702;2023-01-15T13:36:05;19.13;;;14.27;;
70576;SDS011;58138;43.138;24.702;2023-01-15T13:38:38;20.48;;;12.45;;
70576;SDS011;58138;43.138;24.702;2023-01-15T13:41:11;15.55;;;10.95;;
70576;SDS011;58138;43.138;24.702;2023-01-15T13:44:00;17.27;;;12.63;;
70576;SDS011;58138;43.138;24.702;2023-01-15T13:46:27;15.57;;;12.05;;
70576;SDS011;58138;43.138;24.702;2023-01-15T13:48:53;18.27;;;13.85;;
70576;SDS011;58138;43.138;24.702;2023-01-15T13:53:52;17.67;;;12.23;;
70576;SDS011;58138;43.138;24.702;2023-01-15T13:56:28;18.23;;;11.15;;
70576;SDS011;58138;43.138;24.702;2023-01-15T13:58:58;16.88;;;12.95;;
70576;SDS011;58138;43.138;24.702;2023-01-15T14:01:30;18.95;;;13.82;;
70576;SDS011;58138;43.138;24.702;2023-01-15T14:06:54;27.00;;;17.15;;
70576;SDS011;58138;43.138;24.702;2023-01-15T14:14:42;20.95;;;14.48;;
70576;SDS011;58138;43.138;24.702;2023-01-15T14:20:59;23.50;;;14.55;;
70576;SDS011;58138;43.138;24.702;2023-01-15T14:34:26;20.60;;;15.68;;
70576;SDS011;58138;43.138;24.702;2023-01-15T14:36:57;26.88;;;15.70;;
70576;SDS011;58138;43.138;24.702;2023-01-15T14:42:42;29.20;;;17.65;;
70576;SDS011;58138;43.138;24.702;2023-01-15T14:45:04;32.80;;;18.42;;
70576;SDS011;58138;43.138;24.702;2023-01-15T14:47:54;29.85;;;21.45;;
70576;SDS011;58138;43.138;24.702;2023-01-15T14:52:48;51.75;;;35.25;;
70576;SDS011;58138;43.138;24.702;2023-01-15T14:55:15;52.45;;;35.20;;
70576;SDS011;58138;43.138;24.702;2023-01-15T14:57:43;46.15;;;30.83;;
70576;SDS011;58138;43.138;24.702;2023-01-15T15:00:14;40.60;;;28.88;;
70576;SDS011;58138;43.138;24.702;2023-01-15T15:02:41;23.85;;;15.85;;
70576;SDS011;58138;43.138;24.702;2023-01-15T15:05:15;38.40;;;25.50;;
70576;SDS011;58138;43.138;24.702;2023-01-15T15:07:42;49.22;;;30.25;;
70576;SDS011;58138;43.138;24.702;2023-01-15T15:12:43;40.90;;;27.80;;
70576;SDS011;58138;43.138;24.702;2023-01-15T15:15:53;29.40;;;17.35;;
70576;SDS011;58138;43.138;24.702;2023-01-15T15:18:36;57.58;;;38.78;;
70576;SDS011;58138;43.138;24.702;2023-01-15T15:26:23;81.75;;;48.90;;
70576;SDS011;58138;43.138;24.702;2023-01-15T15:29:00;63.88;;;41.20;;
70576;SDS011;58138;43.138;24.702;2023-01-15T15:31:27;68.22;;;45.20;;
70576;SDS011;58138;43.138;24.702;2023-01-15T15:33:55;64.78;;;42.85;;
70576;SDS011;58138;43.138;24.702;2023-01-15T15:36:25;54.42;;;38.05;;
70576;SDS011;58138;43.138;24.702;2023-01-15T15:41:23;63.17;;;38.08;;
70576;SDS011;58138;43.138;24.702;2023-01-15T15:44:21;69.57;;;41.08;;
70576;SDS011;58138;43.138;24.702;2023-01-15T15:47:25;88.35;;;55.42;;
70576;SDS011;58138;43.138;24.702;2023-01-15T15:53:04;56.13;;;35.72;;
70576;SDS011;58138;43.138;24.702;2023-01-15T15:55:38;62.65;;;38.72;;
70576;SDS011;58138;43.138;24.702;2023-01-15T15:58:06;55.65;;;33.97;;
70576;SDS011;58138;43.138;24.702;2023-01-15T16:00:37;55.55;;;34.75;;
70576;SDS011;58138;43.138;24.702;2023-01-15T16:03:27;55.55;;;35.75;;
70576;SDS011;58138;43.138;24.702;2023-01-15T16:05:59;50.95;;;34.33;;
70576;SDS011;58138;43.138;24.702;2023-01-15T16:08:26;57.42;;;39.15;;
70576;SDS011;58138;43.138;24.702;2023-01-15T16:10:53;53.67;;;34.83;;
70576;SDS011;58138;43.138;24.702;2023-01-15T16:13:32;58.88;;;39.95;;
70576;SDS011;58138;43.138;24.702;2023-01-15T16:15:59;54.03;;;36.03;;
70576;SDS011;58138;43.138;24.702;2023-01-15T16:18:26;64.78;;;41.85;;
70576;SDS011;58138;43.138;24.702;2023-01-15T16:20:55;57.83;;;38.13;;
70576;SDS011;58138;43.138;24.702;2023-01-15T16:23:25;63.10;;;38.10;;
70576;SDS011;58138;43.138;24.702;2023-01-15T16:25:57;63.63;;;39.15;;
70576;SDS011;58138;43.138;24.702;2023-01-15T16:28:25;63.10;;;40.30;;
70576;SDS011;58138;43.138;24.702;2023-01-15T16:30:55;77.35;;;44.17;;
70576;SDS011;58138;43.138;24.702;2023-01-15T16:33:21;59.83;;;35.97;;
70576;SDS011;58138;43.138;24.702;2023-01-15T16:36:08;63.22;;;37.15;;
70576;SDS011;58138;43.138;24.702;2023-01-15T16:38:35;64.38;;;39.60;;
70576;SDS011;58138;43.138;24.702;2023-01-15T16:41:31;96.47;;;60.03;;
70576;SDS011;58138;43.138;24.702;2023-01-15T16:44:06;74.82;;;47.67;;
70576;SDS011;58138;43.138;24.702;2023-01-15T16:46:32;48.95;;;31.05;;
70576;SDS011;58138;43.138;24.702;2023-01-15T16:51:51;62.30;;;37.63;;
70576;SDS011;58138;43.138;24.702;2023-01-15T16:56:59;62.97;;;40.25;;
70576;SDS011;58138;43.138;24.702;2023-01-15T17:02:13;81.63;;;49.25;;
70576;SDS011;58138;43.138;24.702;2023-01-15T17:04:42;71.22;;;44.42;;
70576;SDS011;58138;43.138;24.702;2023-01-15T17:09:53;70.03;;;41.60;;
70576;SDS011;58138;43.138;24.702;2023-01-15T17:15:35;107.20;;;60.63;;